sensor_id;sensor_type;location;lat;lon;timestamp;P1;durP1;ratioP1;P2;durP2;ratioP2
60205;SDS011;46072;51.554;6.846;2023-09-19T00:01:30;10.35;;;2.63;;
60205;SDS011;46072;51.554;6.846;2023-09-19T00:03:56;9.27;;;2.88;;
60205;SDS011;46072;51.554;6.846;2023-09-19T00:06:24;10.05;;;3.83;;
60205;SDS011;46072;51.554;6.846;2023-09-19T00:08:52;17.98;;;3.58;;
60205;SDS011;46072;51.554;6.846;2023-09-19T00:11:18;11.57;;;3.38;;
60205;SDS011;46072;51.554;6.846;2023-09-19T00:13:47;14.85;;;3.72;;
60205;SDS011;46072;51.554;6.846;2023-09-19T00:16:16;22.63;;;3.88;;
60205;SDS011;46072;51.554;6.846;2023-09-19T00:18:45;17.17;;;3.97;;
60205;SDS011;46072;51.554;6.846;2023-09-19T00:21:12;15.27;;;4.25;;
60205;SDS011;46072;51.554;6.846;2023-09-19T00:23:38;12.25;;;3.35;;
60205;SDS011;46072;51.554;6.846;2023-09-19T00:26:07;19.25;;;3.30;;
60205;SDS011;46072;51.554;6.846;2023-09-19T00:28:33;15.43;;;4.03;;
60205;SDS011;46072;51.554;6.846;2023-09-19T00:31:00;18.45;;;3.67;;
60205;SDS011;46072;51.554;6.846;2023-09-19T00:33:28;16.33;;;4.20;;
60205;SDS011;46072;51.554;6.846;2023-09-19T00:35:56;17.15;;;4.32;;
60205;SDS011;46072;51.554;6.846;2023-09-19T00:38:23;13.25;;;4.03;;
60205;SDS011;46072;51.554;6.846;2023-09-19T00:40:53;16.83;;;4.47;;
60205;SDS011;46072;51.554;6.846;2023-09-19T00:43:22;20.13;;;4.57;;
60205;SDS011;46072;51.554;6.846;2023-09-19T00:45:51;18.60;;;3.85;;
60205;SDS011;46072;51.554;6.846;2023-09-19T00:48:18;11.70;;;3.65;;
60205;SDS011;46072;51.554;6.846;2023-09-19T00:50:46;12.63;;;3.60;;
60205;SDS011;46072;51.554;6.846;2023-09-19T00:53:14;15.25;;;4.47;;
60205;SDS011;46072;51.554;6.846;2023-09-19T00:55:41;15.55;;;3.67;;
60205;SDS011;46072;51.554;6.846;2023-09-19T00:58:09;15.93;;;3.83;;
60205;SDS011;46072;51.554;6.846;2023-09-19T01:00:36;24.67;;;6.07;;
60205;SDS011;46072;51.554;6.846;2023-09-19T01:03:03;12.80;;;4.10;;
60205;SDS011;46072;51.554;6.846;2023-09-19T01:05:29;11.63;;;3.10;;
60205;SDS011;46072;51.554;6.846;2023-09-19T01:07:56;12.98;;;3.33;;
60205;SDS011;46072;51.554;6.846;2023-09-19T01:10:22;19.27;;;3.80;;
60205;SDS011;46072;51.554;6.846;2023-09-19T01:13:13;18.00;;;4.65;;
60205;SDS011;46072;51.554;6.846;2023-09-19T01:18:18;14.20;;;3.55;;
60205;SDS011;46072;51.554;6.846;2023-09-19T01:20:56;16.35;;;3.95;;
60205;SDS011;46072;51.554;6.846;2023-09-19T01:23:28;16.83;;;3.63;;
60205;SDS011;46072;51.554;6.846;2023-09-19T01:26:05;12.45;;;4.15;;
60205;SDS011;46072;51.554;6.846;2023-09-19T01:28:53;16.88;;;3.35;;
60205;SDS011;46072;51.554;6.846;2023-09-19T01:31:28;14.57;;;4.05;;
60205;SDS011;46072;51.554;6.846;2023-09-19T01:33:59;11.55;;;3.67;;
60205;SDS011;46072;51.554;6.846;2023-09-19T01:36:33;12.23;;;3.33;;
60205;SDS011;46072;51.554;6.846;2023-09-19T01:39:04;16.20;;;3.33;;
60205;SDS011;46072;51.554;6.846;2023-09-19T01:44:29;13.02;;;4.00;;
60205;SDS011;46072;51.554;6.846;2023-09-19T01:46:58;15.63;;;4.55;;
60205;SDS011;46072;51.554;6.846;2023-09-19T01:52:03;20.75;;;3.65;;
60205;SDS011;46072;51.554;6.846;2023-09-19T01:54:33;15.10;;;3.38;;
60205;SDS011;46072;51.554;6.846;2023-09-19T01:57:06;13.50;;;3.72;;
60205;SDS011;46072;51.554;6.846;2023-09-19T01:59:36;15.63;;;3.40;;
60205;SDS011;46072;51.554;6.846;2023-09-19T02:02:04;14.00;;;3.80;;
60205;SDS011;46072;51.554;6.846;2023-09-19T02:04:32;16.15;;;3.58;;
60205;SDS011;46072;51.554;6.846;2023-09-19T02:06:59;9.38;;;2.80;;
60205;SDS011;46072;51.554;6.846;2023-09-19T02:09:27;15.50;;;3.20;;
60205;SDS011;46072;51.554;6.846;2023-09-19T02:11:53;23.17;;;3.88;;
60205;SDS011;46072;51.554;6.846;2023-09-19T02:14:22;17.75;;;3.60;;
60205;SDS011;46072;51.554;6.846;2023-09-19T02:16:48;11.25;;;3.05;;
60205;SDS011;46072;51.554;6.846;2023-09-19T02:19:16;18.95;;;2.95;;
60205;SDS011;46072;51.554;6.846;2023-09-19T02:21:43;13.38;;;2.65;;
60205;SDS011;46072;51.554;6.846;2023-09-19T02:24:09;11.77;;;2.58;;
60205;SDS011;46072;51.554;6.846;2023-09-19T02:26:36;11.45;;;2.50;;
60205;SDS011;46072;51.554;6.846;2023-09-19T02:29:03;8.75;;;2.97;;
60205;SDS011;46072;51.554;6.846;2023-09-19T02:31:30;10.35;;;3.08;;
60205;SDS011;46072;51.554;6.846;2023-09-19T02:33:57;11.23;;;2.92;;
60205;SDS011;46072;51.554;6.846;2023-09-19T02:36:23;10.73;;;2.67;;
60205;SDS011;46072;51.554;6.846;2023-09-19T02:38:49;15.45;;;3.70;;
60205;SDS011;46072;51.554;6.846;2023-09-19T02:41:16;14.20;;;4.18;;
60205;SDS011;46072;51.554;6.846;2023-09-19T02:43:42;14.20;;;2.60;;
60205;SDS011;46072;51.554;6.846;2023-09-19T02:46:09;8.45;;;2.33;;
60205;SDS011;46072;51.554;6.846;2023-09-19T02:48:40;11.98;;;3.28;;
60205;SDS011;46072;51.554;6.846;2023-09-19T02:51:08;14.85;;;2.67;;
60205;SDS011;46072;51.554;6.846;2023-09-19T02:53:34;14.52;;;2.85;;
60205;SDS011;46072;51.554;6.846;2023-09-19T02:56:01;13.48;;;3.13;;
60205;SDS011;46072;51.554;6.846;2023-09-19T02:58:29;10.48;;;2.85;;
60205;SDS011;46072;51.554;6.846;2023-09-19T03:00:56;16.27;;;3.58;;
60205;SDS011;46072;51.554;6.846;2023-09-19T03:03:23;17.17;;;3.47;;
60205;SDS011;46072;51.554;6.846;2023-09-19T03:05:50;12.50;;;3.60;;
60205;SDS011;46072;51.554;6.846;2023-09-19T03:08:20;15.27;;;3.33;;
60205;SDS011;46072;51.554;6.846;2023-09-19T03:10:48;19.40;;;3.80;;
60205;SDS011;46072;51.554;6.846;2023-09-19T03:13:14;16.02;;;2.83;;
60205;SDS011;46072;51.554;6.846;2023-09-19T03:15:42;13.55;;;3.58;;
60205;SDS011;46072;51.554;6.846;2023-09-19T03:18:10;10.13;;;2.38;;
60205;SDS011;46072;51.554;6.846;2023-09-19T03:20:37;16.60;;;4.90;;
60205;SDS011;46072;51.554;6.846;2023-09-19T03:23:04;15.15;;;2.70;;
60205;SDS011;46072;51.554;6.846;2023-09-19T03:25:35;15.20;;;3.50;;
60205;SDS011;46072;51.554;6.846;2023-09-19T03:28:03;14.77;;;3.00;;
60205;SDS011;46072;51.554;6.846;2023-09-19T03:30:32;10.30;;;3.20;;
60205;SDS011;46072;51.554;6.846;2023-09-19T03:32:59;17.20;;;3.17;;
60205;SDS011;46072;51.554;6.846;2023-09-19T03:35:27;11.02;;;3.20;;
60205;SDS011;46072;51.554;6.846;2023-09-19T03:37:53;16.40;;;3.92;;
60205;SDS011;46072;51.554;6.846;2023-09-19T03:40:20;16.05;;;3.17;;
60205;SDS011;46072;51.554;6.846;2023-09-19T03:42:48;12.45;;;3.47;;
60205;SDS011;46072;51.554;6.846;2023-09-19T03:45:14;15.95;;;2.90;;
60205;SDS011;46072;51.554;6.846;2023-09-19T03:47:42;14.10;;;3.10;;
60205;SDS011;46072;51.554;6.846;2023-09-19T03:50:08;16.65;;;3.15;;
60205;SDS011;46072;51.554;6.846;2023-09-19T03:52:37;13.32;;;3.38;;
60205;SDS011;46072;51.554;6.846;2023-09-19T03:55:03;15.45;;;2.95;;
60205;SDS011;46072;51.554;6.846;2023-09-19T03:57:33;12.82;;;2.70;;
60205;SDS011;46072;51.554;6.846;2023-09-19T04:00:00;13.85;;;3.28;;
60205;SDS011;46072;51.554;6.846;2023-09-19T04:02:27;16.40;;;3.97;;
60205;SDS011;46072;51.554;6.846;2023-09-19T04:04:59;17.20;;;3.33;;
60205;SDS011;46072;51.554;6.846;2023-09-19T04:07:25;15.93;;;3.33;;
60205;SDS011;46072;51.554;6.846;2023-09-19T04:09:55;15.40;;;4.03;;
60205;SDS011;46072;51.554;6.846;2023-09-19T04:12:21;11.98;;;3.50;;
60205;SDS011;46072;51.554;6.846;2023-09-19T04:14:48;15.65;;;4.05;;
60205;SDS011;46072;51.554;6.846;2023-09-19T04:17:16;12.05;;;3.30;;
60205;SDS011;46072;51.554;6.846;2023-09-19T04:19:42;12.63;;;3.65;;
60205;SDS011;46072;51.554;6.846;2023-09-19T04:22:09;12.15;;;3.63;;
60205;SDS011;46072;51.554;6.846;2023-09-19T04:24:37;13.52;;;3.50;;
60205;SDS011;46072;51.554;6.846;2023-09-19T04:27:04;18.65;;;4.22;;
60205;SDS011;46072;51.554;6.846;2023-09-19T04:29:31;13.65;;;3.03;;
60205;SDS011;46072;51.554;6.846;2023-09-19T04:31:58;10.95;;;2.78;;
60205;SDS011;46072;51.554;6.846;2023-09-19T04:34:24;16.85;;;3.38;;
60205;SDS011;46072;51.554;6.846;2023-09-19T04:36:51;10.73;;;2.58;;
60205;SDS011;46072;51.554;6.846;2023-09-19T04:39:17;9.02;;;2.80;;
60205;SDS011;46072;51.554;6.846;2023-09-19T04:41:44;15.00;;;4.13;;
60205;SDS011;46072;51.554;6.846;2023-09-19T04:44:11;10.15;;;2.42;;
60205;SDS011;46072;51.554;6.846;2023-09-19T04:46:37;10.52;;;2.50;;
60205;SDS011;46072;51.554;6.846;2023-09-19T04:49:04;13.00;;;3.25;;
60205;SDS011;46072;51.554;6.846;2023-09-19T04:51:30;16.70;;;3.53;;
60205;SDS011;46072;51.554;6.846;2023-09-19T04:54:00;12.57;;;2.75;;
60205;SDS011;46072;51.554;6.846;2023-09-19T04:56:27;17.52;;;3.08;;
60205;SDS011;46072;51.554;6.846;2023-09-19T04:58:54;17.35;;;3.22;;
60205;SDS011;46072;51.554;6.846;2023-09-19T05:01:21;12.77;;;3.20;;
60205;SDS011;46072;51.554;6.846;2023-09-19T05:03:49;14.68;;;3.15;;
60205;SDS011;46072;51.554;6.846;2023-09-19T05:06:19;17.67;;;3.30;;
60205;SDS011;46072;51.554;6.846;2023-09-19T05:08:47;12.40;;;2.95;;
60205;SDS011;46072;51.554;6.846;2023-09-19T05:11:21;11.55;;;3.25;;
60205;SDS011;46072;51.554;6.846;2023-09-19T05:13:49;9.40;;;2.65;;
60205;SDS011;46072;51.554;6.846;2023-09-19T05:16:22;11.77;;;3.08;;
60205;SDS011;46072;51.554;6.846;2023-09-19T05:18:48;13.85;;;3.15;;
60205;SDS011;46072;51.554;6.846;2023-09-19T05:21:15;16.63;;;3.45;;
60205;SDS011;46072;51.554;6.846;2023-09-19T05:23:42;12.38;;;3.42;;
60205;SDS011;46072;51.554;6.846;2023-09-19T05:26:08;11.95;;;3.58;;
60205;SDS011;46072;51.554;6.846;2023-09-19T05:28:36;15.10;;;4.13;;
60205;SDS011;46072;51.554;6.846;2023-09-19T05:31:04;19.30;;;3.50;;
60205;SDS011;46072;51.554;6.846;2023-09-19T05:33:31;12.50;;;3.53;;
60205;SDS011;46072;51.554;6.846;2023-09-19T05:35:58;12.93;;;3.30;;
60205;SDS011;46072;51.554;6.846;2023-09-19T05:38:24;14.77;;;3.72;;
60205;SDS011;46072;51.554;6.846;2023-09-19T05:40:52;17.42;;;3.90;;
60205;SDS011;46072;51.554;6.846;2023-09-19T05:43:20;17.52;;;3.90;;
60205;SDS011;46072;51.554;6.846;2023-09-19T05:45:47;18.42;;;4.53;;
60205;SDS011;46072;51.554;6.846;2023-09-19T05:48:14;21.50;;;3.88;;
60205;SDS011;46072;51.554;6.846;2023-09-19T05:50:42;15.73;;;3.88;;
60205;SDS011;46072;51.554;6.846;2023-09-19T05:53:09;22.00;;;4.05;;
60205;SDS011;46072;51.554;6.846;2023-09-19T05:55:39;13.18;;;3.50;;
60205;SDS011;46072;51.554;6.846;2023-09-19T05:58:05;13.52;;;3.42;;
60205;SDS011;46072;51.554;6.846;2023-09-19T06:00:31;20.02;;;3.63;;
60205;SDS011;46072;51.554;6.846;2023-09-19T06:02:58;13.30;;;3.90;;
60205;SDS011;46072;51.554;6.846;2023-09-19T06:05:25;15.45;;;3.50;;
60205;SDS011;46072;51.554;6.846;2023-09-19T06:07:58;24.45;;;4.47;;
60205;SDS011;46072;51.554;6.846;2023-09-19T06:10:34;23.38;;;4.20;;
60205;SDS011;46072;51.554;6.846;2023-09-19T06:13:04;16.08;;;4.63;;
60205;SDS011;46072;51.554;6.846;2023-09-19T06:15:35;15.57;;;3.45;;
60205;SDS011;46072;51.554;6.846;2023-09-19T06:18:02;17.50;;;3.53;;
60205;SDS011;46072;51.554;6.846;2023-09-19T06:20:31;15.63;;;3.70;;
60205;SDS011;46072;51.554;6.846;2023-09-19T06:22:59;16.65;;;3.83;;
60205;SDS011;46072;51.554;6.846;2023-09-19T06:25:28;13.52;;;3.65;;
60205;SDS011;46072;51.554;6.846;2023-09-19T06:27:54;13.07;;;3.53;;
60205;SDS011;46072;51.554;6.846;2023-09-19T06:30:22;16.15;;;3.78;;
60205;SDS011;46072;51.554;6.846;2023-09-19T06:32:57;17.10;;;3.50;;
60205;SDS011;46072;51.554;6.846;2023-09-19T06:35:24;13.30;;;3.55;;
60205;SDS011;46072;51.554;6.846;2023-09-19T06:37:52;16.00;;;3.55;;
60205;SDS011;46072;51.554;6.846;2023-09-19T06:40:19;13.45;;;3.72;;
60205;SDS011;46072;51.554;6.846;2023-09-19T06:42:46;20.10;;;3.83;;
60205;SDS011;46072;51.554;6.846;2023-09-19T06:45:14;19.08;;;3.22;;
60205;SDS011;46072;51.554;6.846;2023-09-19T06:47:45;13.43;;;3.78;;
60205;SDS011;46072;51.554;6.846;2023-09-19T06:50:12;12.70;;;3.50;;
60205;SDS011;46072;51.554;6.846;2023-09-19T06:52:45;14.45;;;3.55;;
60205;SDS011;46072;51.554;6.846;2023-09-19T06:55:12;15.10;;;3.25;;
60205;SDS011;46072;51.554;6.846;2023-09-19T06:57:39;16.48;;;3.33;;
60205;SDS011;46072;51.554;6.846;2023-09-19T07:00:10;12.65;;;4.00;;
60205;SDS011;46072;51.554;6.846;2023-09-19T07:02:44;18.55;;;3.78;;
60205;SDS011;46072;51.554;6.846;2023-09-19T07:05:11;17.58;;;3.60;;
60205;SDS011;46072;51.554;6.846;2023-09-19T07:07:37;17.05;;;4.07;;
60205;SDS011;46072;51.554;6.846;2023-09-19T07:10:04;15.70;;;3.58;;
60205;SDS011;46072;51.554;6.846;2023-09-19T07:12:37;19.38;;;3.63;;
60205;SDS011;46072;51.554;6.846;2023-09-19T07:15:04;11.73;;;3.35;;
60205;SDS011;46072;51.554;6.846;2023-09-19T07:17:32;21.02;;;4.72;;
60205;SDS011;46072;51.554;6.846;2023-09-19T07:19:59;19.25;;;4.18;;
60205;SDS011;46072;51.554;6.846;2023-09-19T07:22:26;14.02;;;4.13;;
60205;SDS011;46072;51.554;6.846;2023-09-19T07:24:52;19.55;;;4.55;;
60205;SDS011;46072;51.554;6.846;2023-09-19T07:27:19;18.33;;;3.53;;
60205;SDS011;46072;51.554;6.846;2023-09-19T07:29:45;13.18;;;3.63;;
60205;SDS011;46072;51.554;6.846;2023-09-19T07:32:15;12.55;;;3.75;;
60205;SDS011;46072;51.554;6.846;2023-09-19T07:34:43;15.40;;;3.55;;
60205;SDS011;46072;51.554;6.846;2023-09-19T07:37:11;20.60;;;3.17;;
60205;SDS011;46072;51.554;6.846;2023-09-19T07:39:39;15.98;;;3.65;;
60205;SDS011;46072;51.554;6.846;2023-09-19T07:42:08;14.85;;;3.42;;
60205;SDS011;46072;51.554;6.846;2023-09-19T07:44:35;16.92;;;3.42;;
60205;SDS011;46072;51.554;6.846;2023-09-19T07:47:02;24.42;;;5.07;;
60205;SDS011;46072;51.554;6.846;2023-09-19T07:49:29;10.65;;;3.05;;
60205;SDS011;46072;51.554;6.846;2023-09-19T07:51:56;15.27;;;3.88;;
60205;SDS011;46072;51.554;6.846;2023-09-19T07:54:23;17.17;;;3.20;;
60205;SDS011;46072;51.554;6.846;2023-09-19T07:56:51;13.40;;;3.55;;
60205;SDS011;46072;51.554;6.846;2023-09-19T07:59:17;13.23;;;3.05;;
60205;SDS011;46072;51.554;6.846;2023-09-19T08:01:43;18.52;;;3.40;;
60205;SDS011;46072;51.554;6.846;2023-09-19T08:04:10;17.23;;;3.92;;
60205;SDS011;46072;51.554;6.846;2023-09-19T08:06:37;13.35;;;3.55;;
60205;SDS011;46072;51.554;6.846;2023-09-19T08:09:05;13.40;;;3.97;;
60205;SDS011;46072;51.554;6.846;2023-09-19T08:11:35;12.82;;;3.22;;
60205;SDS011;46072;51.554;6.846;2023-09-19T08:14:01;17.38;;;3.30;;
60205;SDS011;46072;51.554;6.846;2023-09-19T08:16:28;11.80;;;3.25;;
60205;SDS011;46072;51.554;6.846;2023-09-19T08:18:54;23.58;;;4.70;;
60205;SDS011;46072;51.554;6.846;2023-09-19T08:21:21;17.05;;;3.45;;
60205;SDS011;46072;51.554;6.846;2023-09-19T08:23:48;17.65;;;4.90;;
60205;SDS011;46072;51.554;6.846;2023-09-19T08:26:14;23.85;;;4.43;;
60205;SDS011;46072;51.554;6.846;2023-09-19T08:28:41;13.55;;;2.97;;
60205;SDS011;46072;51.554;6.846;2023-09-19T08:31:08;12.38;;;2.80;;
60205;SDS011;46072;51.554;6.846;2023-09-19T08:33:35;12.23;;;3.75;;
60205;SDS011;46072;51.554;6.846;2023-09-19T08:36:02;12.68;;;3.33;;
60205;SDS011;46072;51.554;6.846;2023-09-19T08:38:33;11.70;;;3.15;;
60205;SDS011;46072;51.554;6.846;2023-09-19T08:41:00;17.65;;;2.85;;
60205;SDS011;46072;51.554;6.846;2023-09-19T08:43:27;13.07;;;2.65;;
60205;SDS011;46072;51.554;6.846;2023-09-19T08:46:03;18.88;;;3.20;;
60205;SDS011;46072;51.554;6.846;2023-09-19T08:48:34;13.57;;;2.78;;
60205;SDS011;46072;51.554;6.846;2023-09-19T08:51:06;12.40;;;2.80;;
60205;SDS011;46072;51.554;6.846;2023-09-19T08:53:45;14.52;;;2.75;;
60205;SDS011;46072;51.554;6.846;2023-09-19T08:56:16;11.13;;;2.97;;
60205;SDS011;46072;51.554;6.846;2023-09-19T08:58:54;13.25;;;2.80;;
60205;SDS011;46072;51.554;6.846;2023-09-19T09:01:21;13.38;;;2.35;;
60205;SDS011;46072;51.554;6.846;2023-09-19T09:03:52;12.88;;;3.10;;
60205;SDS011;46072;51.554;6.846;2023-09-19T09:06:22;15.48;;;2.55;;
60205;SDS011;46072;51.554;6.846;2023-09-19T09:08:50;14.48;;;3.30;;
60205;SDS011;46072;51.554;6.846;2023-09-19T09:11:16;12.60;;;2.55;;
60205;SDS011;46072;51.554;6.846;2023-09-19T09:13:44;13.27;;;2.83;;
60205;SDS011;46072;51.554;6.846;2023-09-19T09:16:11;19.10;;;2.88;;
60205;SDS011;46072;51.554;6.846;2023-09-19T09:18:39;10.30;;;2.40;;
60205;SDS011;46072;51.554;6.846;2023-09-19T09:21:06;12.70;;;3.28;;
60205;SDS011;46072;51.554;6.846;2023-09-19T09:23:32;14.73;;;3.20;;
60205;SDS011;46072;51.554;6.846;2023-09-19T09:25:59;10.57;;;2.42;;
60205;SDS011;46072;51.554;6.846;2023-09-19T09:28:30;10.02;;;2.92;;
60205;SDS011;46072;51.554;6.846;2023-09-19T09:30:57;10.40;;;2.80;;
60205;SDS011;46072;51.554;6.846;2023-09-19T09:33:29;9.85;;;2.72;;
60205;SDS011;46072;51.554;6.846;2023-09-19T09:35:56;12.35;;;3.08;;
60205;SDS011;46072;51.554;6.846;2023-09-19T09:38:25;15.25;;;4.70;;
60205;SDS011;46072;51.554;6.846;2023-09-19T09:40:55;13.38;;;3.42;;
60205;SDS011;46072;51.554;6.846;2023-09-19T09:43:34;17.88;;;2.78;;
60205;SDS011;46072;51.554;6.846;2023-09-19T09:46:12;12.05;;;2.40;;
60205;SDS011;46072;51.554;6.846;2023-09-19T09:48:55;12.52;;;3.08;;
60205;SDS011;46072;51.554;6.846;2023-09-19T09:51:40;18.10;;;3.25;;
60205;SDS011;46072;51.554;6.846;2023-09-19T09:54:12;12.98;;;2.92;;
60205;SDS011;46072;51.554;6.846;2023-09-19T09:56:55;14.75;;;2.95;;
60205;SDS011;46072;51.554;6.846;2023-09-19T09:59:43;20.33;;;3.53;;
60205;SDS011;46072;51.554;6.846;2023-09-19T10:02:10;14.38;;;2.83;;
60205;SDS011;46072;51.554;6.846;2023-09-19T10:04:40;14.90;;;2.97;;
60205;SDS011;46072;51.554;6.846;2023-09-19T10:07:25;10.45;;;2.70;;
60205;SDS011;46072;51.554;6.846;2023-09-19T10:09:53;12.48;;;2.92;;
60205;SDS011;46072;51.554;6.846;2023-09-19T10:12:25;16.58;;;4.25;;
60205;SDS011;46072;51.554;6.846;2023-09-19T10:14:55;9.32;;;2.30;;
60205;SDS011;46072;51.554;6.846;2023-09-19T10:17:24;14.82;;;2.83;;
60205;SDS011;46072;51.554;6.846;2023-09-19T10:19:55;16.15;;;3.05;;
60205;SDS011;46072;51.554;6.846;2023-09-19T10:22:26;12.95;;;2.95;;
60205;SDS011;46072;51.554;6.846;2023-09-19T10:24:53;10.15;;;2.53;;
60205;SDS011;46072;51.554;6.846;2023-09-19T10:27:28;14.63;;;3.50;;
60205;SDS011;46072;51.554;6.846;2023-09-19T10:29:55;12.32;;;2.72;;
60205;SDS011;46072;51.554;6.846;2023-09-19T10:32:23;13.45;;;3.28;;
60205;SDS011;46072;51.554;6.846;2023-09-19T10:34:51;7.93;;;3.03;;
60205;SDS011;46072;51.554;6.846;2023-09-19T10:37:21;9.77;;;2.55;;
60205;SDS011;46072;51.554;6.846;2023-09-19T10:39:52;11.23;;;3.42;;
60205;SDS011;46072;51.554;6.846;2023-09-19T10:42:21;10.20;;;2.45;;
60205;SDS011;46072;51.554;6.846;2023-09-19T10:44:54;11.68;;;2.88;;
60205;SDS011;46072;51.554;6.846;2023-09-19T10:47:21;13.48;;;3.58;;
60205;SDS011;46072;51.554;6.846;2023-09-19T10:49:50;16.00;;;2.65;;
60205;SDS011;46072;51.554;6.846;2023-09-19T10:52:19;12.35;;;2.97;;
60205;SDS011;46072;51.554;6.846;2023-09-19T10:54:47;10.10;;;2.40;;
60205;SDS011;46072;51.554;6.846;2023-09-19T10:57:19;7.38;;;2.22;;
60205;SDS011;46072;51.554;6.846;2023-09-19T11:00:00;15.73;;;2.58;;
60205;SDS011;46072;51.554;6.846;2023-09-19T11:03:32;9.48;;;2.85;;
60205;SDS011;46072;51.554;6.846;2023-09-19T11:05:33;15.88;;;3.28;;
60205;SDS011;46072;51.554;6.846;2023-09-19T11:08:00;15.07;;;2.78;;
60205;SDS011;46072;51.554;6.846;2023-09-19T11:10:46;8.30;;;2.22;;
60205;SDS011;46072;51.554;6.846;2023-09-19T11:21:38;11.43;;;2.88;;
60205;SDS011;46072;51.554;6.846;2023-09-19T11:26:44;12.07;;;3.05;;
60205;SDS011;46072;51.554;6.846;2023-09-19T11:29:29;11.07;;;2.05;;
60205;SDS011;46072;51.554;6.846;2023-09-19T11:31:57;7.90;;;1.85;;
60205;SDS011;46072;51.554;6.846;2023-09-19T11:37:02;8.98;;;2.40;;
60205;SDS011;46072;51.554;6.846;2023-09-19T11:39:30;12.20;;;3.10;;
60205;SDS011;46072;51.554;6.846;2023-09-19T11:41:57;13.25;;;2.72;;
60205;SDS011;46072;51.554;6.846;2023-09-19T11:46:53;7.40;;;2.20;;
60205;SDS011;46072;51.554;6.846;2023-09-19T11:49:30;8.95;;;2.30;;
60205;SDS011;46072;51.554;6.846;2023-09-19T11:51:59;6.70;;;2.50;;
60205;SDS011;46072;51.554;6.846;2023-09-19T11:54:31;15.00;;;2.83;;
60205;SDS011;46072;51.554;6.846;2023-09-19T11:56:58;7.72;;;2.35;;
60205;SDS011;46072;51.554;6.846;2023-09-19T11:59:26;11.82;;;2.55;;
60205;SDS011;46072;51.554;6.846;2023-09-19T12:01:54;10.35;;;2.38;;
60205;SDS011;46072;51.554;6.846;2023-09-19T12:04:37;9.57;;;3.10;;
60205;SDS011;46072;51.554;6.846;2023-09-19T12:07:07;8.10;;;2.73;;
60205;SDS011;46072;51.554;6.846;2023-09-19T12:09:38;10.30;;;2.45;;
60205;SDS011;46072;51.554;6.846;2023-09-19T12:12:06;7.95;;;2.42;;
60205;SDS011;46072;51.554;6.846;2023-09-19T12:14:32;6.63;;;2.15;;
60205;SDS011;46072;51.554;6.846;2023-09-19T12:17:00;13.13;;;3.15;;
60205;SDS011;46072;51.554;6.846;2023-09-19T12:19:28;7.07;;;2.20;;
60205;SDS011;46072;51.554;6.846;2023-09-19T12:21:56;12.80;;;2.58;;
60205;SDS011;46072;51.554;6.846;2023-09-19T12:24:26;7.32;;;2.25;;
60205;SDS011;46072;51.554;6.846;2023-09-19T12:27:02;9.73;;;3.45;;
60205;SDS011;46072;51.554;6.846;2023-09-19T12:29:32;12.15;;;2.47;;
60205;SDS011;46072;51.554;6.846;2023-09-19T12:32:02;9.82;;;2.67;;
60205;SDS011;46072;51.554;6.846;2023-09-19T12:34:30;9.25;;;2.83;;
60205;SDS011;46072;51.554;6.846;2023-09-19T12:39:32;6.38;;;2.20;;
60205;SDS011;46072;51.554;6.846;2023-09-19T12:41:58;15.48;;;2.83;;
60205;SDS011;46072;51.554;6.846;2023-09-19T12:44:25;11.43;;;2.30;;
60205;SDS011;46072;51.554;6.846;2023-09-19T12:46:51;9.18;;;1.85;;
60205;SDS011;46072;51.554;6.846;2023-09-19T12:49:20;6.40;;;1.90;;
60205;SDS011;46072;51.554;6.846;2023-09-19T12:51:48;11.00;;;2.20;;
60205;SDS011;46072;51.554;6.846;2023-09-19T12:54:15;13.45;;;2.60;;
60205;SDS011;46072;51.554;6.846;2023-09-19T12:56:44;7.97;;;2.20;;
60205;SDS011;46072;51.554;6.846;2023-09-19T12:59:12;8.52;;;2.35;;
60205;SDS011;46072;51.554;6.846;2023-09-19T13:01:40;8.93;;;2.25;;
60205;SDS011;46072;51.554;6.846;2023-09-19T13:04:16;9.60;;;2.30;;
60205;SDS011;46072;51.554;6.846;2023-09-19T13:06:47;11.18;;;2.20;;
60205;SDS011;46072;51.554;6.846;2023-09-19T13:09:15;10.65;;;2.80;;
60205;SDS011;46072;51.554;6.846;2023-09-19T13:11:42;11.95;;;3.40;;
60205;SDS011;46072;51.554;6.846;2023-09-19T13:19:50;12.23;;;2.40;;
60205;SDS011;46072;51.554;6.846;2023-09-19T13:22:36;6.85;;;1.80;;
60205;SDS011;46072;51.554;6.846;2023-09-19T13:25:10;7.18;;;2.05;;
60205;SDS011;46072;51.554;6.846;2023-09-19T13:27:41;7.55;;;1.88;;
60205;SDS011;46072;51.554;6.846;2023-09-19T13:30:08;7.13;;;2.05;;
60205;SDS011;46072;51.554;6.846;2023-09-19T13:32:35;7.28;;;1.90;;
60205;SDS011;46072;51.554;6.846;2023-09-19T13:35:02;7.25;;;1.98;;
60205;SDS011;46072;51.554;6.846;2023-09-19T13:37:28;9.95;;;2.20;;
60205;SDS011;46072;51.554;6.846;2023-09-19T13:39:55;9.57;;;2.35;;
60205;SDS011;46072;51.554;6.846;2023-09-19T13:42:21;7.32;;;2.15;;
60205;SDS011;46072;51.554;6.846;2023-09-19T13:44:47;7.40;;;2.10;;
60205;SDS011;46072;51.554;6.846;2023-09-19T13:47:14;12.27;;;1.80;;
60205;SDS011;46072;51.554;6.846;2023-09-19T13:49:41;5.85;;;1.80;;
60205;SDS011;46072;51.554;6.846;2023-09-19T13:52:08;5.75;;;1.55;;
60205;SDS011;46072;51.554;6.846;2023-09-19T13:54:35;7.40;;;2.22;;
60205;SDS011;46072;51.554;6.846;2023-09-19T13:57:01;8.45;;;1.55;;
60205;SDS011;46072;51.554;6.846;2023-09-19T13:59:28;7.65;;;1.98;;
60205;SDS011;46072;51.554;6.846;2023-09-19T14:01:54;6.35;;;1.98;;
60205;SDS011;46072;51.554;6.846;2023-09-19T14:04:21;5.55;;;1.67;;
60205;SDS011;46072;51.554;6.846;2023-09-19T14:06:48;5.03;;;1.90;;
60205;SDS011;46072;51.554;6.846;2023-09-19T14:09:14;8.55;;;2.20;;
60205;SDS011;46072;51.554;6.846;2023-09-19T14:11:42;7.30;;;2.08;;
60205;SDS011;46072;51.554;6.846;2023-09-19T14:14:12;5.90;;;1.85;;
60205;SDS011;46072;51.554;6.846;2023-09-19T14:16:38;7.25;;;1.63;;
60205;SDS011;46072;51.554;6.846;2023-09-19T14:19:08;6.63;;;1.67;;
60205;SDS011;46072;51.554;6.846;2023-09-19T14:21:34;7.78;;;1.60;;
60205;SDS011;46072;51.554;6.846;2023-09-19T14:24:02;7.45;;;1.30;;
60205;SDS011;46072;51.554;6.846;2023-09-19T14:26:29;6.93;;;1.60;;
60205;SDS011;46072;51.554;6.846;2023-09-19T14:28:55;6.20;;;1.80;;
60205;SDS011;46072;51.554;6.846;2023-09-19T14:31:21;10.35;;;1.63;;
60205;SDS011;46072;51.554;6.846;2023-09-19T14:33:53;5.10;;;1.52;;
60205;SDS011;46072;51.554;6.846;2023-09-19T14:36:19;5.22;;;1.58;;
60205;SDS011;46072;51.554;6.846;2023-09-19T14:38:47;4.70;;;1.30;;
60205;SDS011;46072;51.554;6.846;2023-09-19T14:41:20;3.05;;;1.77;;
60205;SDS011;46072;51.554;6.846;2023-09-19T14:43:46;8.45;;;1.60;;
60205;SDS011;46072;51.554;6.846;2023-09-19T14:46:12;6.40;;;1.60;;
60205;SDS011;46072;51.554;6.846;2023-09-19T14:48:40;5.45;;;1.40;;
60205;SDS011;46072;51.554;6.846;2023-09-19T14:51:07;1.77;;;1.33;;
60205;SDS011;46072;51.554;6.846;2023-09-19T14:53:38;3.95;;;1.17;;
60205;SDS011;46072;51.554;6.846;2023-09-19T14:56:05;7.47;;;1.70;;
60205;SDS011;46072;51.554;6.846;2023-09-19T14:58:31;5.22;;;1.70;;
60205;SDS011;46072;51.554;6.846;2023-09-19T15:01:06;7.63;;;1.45;;
60205;SDS011;46072;51.554;6.846;2023-09-19T15:03:33;6.28;;;1.60;;
60205;SDS011;46072;51.554;6.846;2023-09-19T15:06:01;2.63;;;1.17;;
60205;SDS011;46072;51.554;6.846;2023-09-19T15:08:28;3.20;;;1.23;;
60205;SDS011;46072;51.554;6.846;2023-09-19T15:10:54;6.55;;;1.50;;
60205;SDS011;46072;51.554;6.846;2023-09-19T15:13:22;1.42;;;1.20;;
60205;SDS011;46072;51.554;6.846;2023-09-19T15:15:48;4.97;;;1.20;;
60205;SDS011;46072;51.554;6.846;2023-09-19T15:18:15;4.72;;;1.20;;
60205;SDS011;46072;51.554;6.846;2023-09-19T15:20:44;5.18;;;1.42;;